createdAt,value
2023-05-25T00:01:54.778Z,99101.16
2023-05-25T00:04:27.160Z,99104.41
2023-05-25T00:06:55.281Z,99097.13
2023-05-25T00:09:23.246Z,99100.78
2023-05-25T00:11:52.445Z,99100.78
2023-05-25T00:14:20.993Z,99105.44
2023-05-25T00:16:49.367Z,99100.38
2023-05-25T00:19:18.600Z,99096.22
2023-05-25T00:21:50.084Z,99093.47
2023-05-25T00:24:18.022Z,99094.31
2023-05-25T00:26:46.063Z,99088.06
2023-05-25T00:29:14.990Z,99095.84
2023-05-25T00:31:42.831Z,99098.16
2023-05-25T00:34:10.600Z,99094.53
2023-05-25T00:36:38.307Z,99096.03
2023-05-25T00:39:07.455Z,99086.75
2023-05-25T00:41:35.361Z,99085.91
2023-05-25T00:44:03.910Z,99089.28
2023-05-25T00:46:34.335Z,99093.53
2023-05-25T00:49:03.954Z,99089.50
2023-05-25T00:51:32.993Z,99088.69
2023-05-25T00:54:00.879Z,99086.66
2023-05-25T00:56:33.778Z,99083.59
2023-05-25T00:59:06.909Z,99077.47
2023-05-25T01:01:40.320Z,99069.44
2023-05-25T01:04:10.118Z,99078.63
2023-05-25T01:06:40.717Z,99077.88
2023-05-25T01:09:14.528Z,99078.63
2023-05-25T01:11:49.758Z,99080.41
2023-05-25T01:14:20.663Z,99070.59
2023-05-25T01:16:49.456Z,99064.53
2023-05-25T01:19:18.476Z,99068.59
2023-05-25T01:21:56.784Z,99069.22
2023-05-25T01:24:32.505Z,99068.78
2023-05-25T01:27:08.838Z,99070.28
2023-05-25T01:29:40.436Z,99075.13
2023-05-25T01:32:09.686Z,99076.06
2023-05-25T01:34:39.131Z,99069.72
2023-05-25T01:37:08.859Z,99073.88
2023-05-25T01:39:37.542Z,99069.53
2023-05-25T01:42:05.721Z,99067.09
2023-05-25T01:44:34.939Z,99073.22
2023-05-25T01:47:06.820Z,99071.75
2023-05-25T01:49:45.219Z,99081.91
2023-05-25T01:52:22.171Z,99083.19
2023-05-25T01:54:56.080Z,99077.69
2023-05-25T01:57:27.471Z,99079.16
2023-05-25T02:00:00.192Z,99083.78
2023-05-25T02:02:29.387Z,99073.63
2023-05-25T02:04:58.428Z,99077.94
2023-05-25T02:07:27.736Z,99087.81
2023-05-25T02:09:56.421Z,99083.78
2023-05-25T02:12:24.563Z,99072.78
2023-05-25T02:14:52.456Z,99078.72
2023-05-25T02:17:20.632Z,99077.22
2023-05-25T02:19:53.120Z,99067.75
2023-05-25T02:22:21.789Z,99064.34
2023-05-25T02:24:51.307Z,99051.66
2023-05-25T02:27:21.419Z,99048.81
2023-05-25T02:29:49.448Z,99051.63
2023-05-25T02:32:18.251Z,99048.94
2023-05-25T02:34:46.977Z,99048.28
2023-05-25T02:37:14.956Z,99046.75
2023-05-25T02:39:42.980Z,99044.59
2023-05-25T02:42:12.245Z,99050.81
2023-05-25T02:44:40.173Z,99049.97
2023-05-25T02:47:08.500Z,99047.91
2023-05-25T02:49:38.735Z,99048.03
2023-05-25T02:52:10.030Z,99050.16
2023-05-25T02:54:38.078Z,99051.28
2023-05-25T02:57:08.403Z,99063.16
2023-05-25T02:59:37.782Z,99062.38
2023-05-25T03:02:06.238Z,99073.94
2023-05-25T03:04:37.895Z,99072.16
2023-05-25T03:07:06.431Z,99062.44
2023-05-25T03:09:34.397Z,99062.91
2023-05-25T03:12:04.554Z,99066.88
2023-05-25T03:14:33.575Z,99078.09
2023-05-25T03:17:07.018Z,99082.53
2023-05-25T03:19:35.118Z,99084.00
2023-05-25T03:22:04.340Z,99080.34
2023-05-25T03:24:33.329Z,99080.53
2023-05-25T03:31:21.815Z,99082.28
2023-05-25T03:33:51.370Z,99078.59
2023-05-25T03:36:22.236Z,99086.13
2023-05-25T03:38:51.624Z,99080.31
2023-05-25T03:41:19.963Z,99077.84
2023-05-25T03:43:47.904Z,99079.78
2023-05-25T03:46:16.005Z,99083.56
2023-05-25T03:48:44.925Z,99081.81
2023-05-25T03:51:14.224Z,99081.53
2023-05-25T03:53:42.089Z,99088.09
2023-05-25T03:56:09.939Z,99083.38
2023-05-25T03:58:38.901Z,99094.91
2023-05-25T04:01:06.843Z,99092.66
2023-05-25T04:03:34.881Z,99096.63
2023-05-25T04:06:03.126Z,99103.00
2023-05-25T04:08:35.534Z,99101.16
2023-05-25T04:11:03.442Z,99104.75
2023-05-25T04:13:35.788Z,99105.94
2023-05-25T04:16:04.840Z,99101.09
2023-05-25T04:18:33.958Z,99104.81
2023-05-25T04:21:01.982Z,99106.31
2023-05-25T04:23:34.162Z,99118.09
2023-05-25T04:26:06.097Z,99118.53
2023-05-25T04:28:34.213Z,99118.50
2023-05-25T04:31:27.154Z,99117.88
2023-05-25T04:34:15.632Z,99111.28
2023-05-25T04:36:51.508Z,99107.88
2023-05-25T04:39:21.134Z,99115.31
2023-05-25T04:41:57.306Z,99127.06
2023-05-25T04:44:25.830Z,99128.66
2023-05-25T04:46:55.693Z,99119.16
2023-05-25T04:49:31.901Z,99126.31
2023-05-25T04:51:59.878Z,99124.63
2023-05-25T04:54:30.273Z,99132.31
2023-05-25T04:57:03.237Z,99125.44
2023-05-25T04:59:32.745Z,99126.50
2023-05-25T05:02:01.364Z,99128.44
2023-05-25T05:04:29.305Z,99125.06
2023-05-25T05:06:58.958Z,99124.84
2023-05-25T05:09:30.227Z,99127.56
2023-05-25T05:12:02.968Z,99127.16
2023-05-25T05:14:36.408Z,99131.72
2023-05-25T05:17:04.589Z,99139.88
2023-05-25T05:19:33.243Z,99143.94
2023-05-25T05:22:01.335Z,99153.22
2023-05-25T05:24:29.387Z,99153.78
2023-05-25T05:26:59.158Z,99154.28
2023-05-25T05:29:38.567Z,99154.09
2023-05-25T05:32:07.488Z,99163.84
2023-05-25T05:34:36.316Z,99158.31
2023-05-25T05:37:08.802Z,99160.75
2023-05-25T05:39:37.307Z,99156.41
2023-05-25T05:42:06.869Z,99161.16
2023-05-25T05:44:37.030Z,99166.78
2023-05-25T05:47:08.918Z,99158.75
2023-05-25T05:49:38.278Z,99167.81
2023-05-25T05:52:06.870Z,99170.91
2023-05-25T05:54:35.342Z,99166.34
2023-05-25T05:57:09.067Z,99167.31
2023-05-25T05:59:37.442Z,99175.06
2023-05-25T06:02:06.298Z,99186.34
2023-05-25T06:04:38.134Z,99184.22
2023-05-25T06:07:06.547Z,99194.16
2023-05-25T06:09:34.754Z,99189.63
2023-05-25T06:12:03.460Z,99199.31
2023-05-25T06:14:31.840Z,99189.75
2023-05-25T06:17:02.945Z,99199.69
2023-05-25T06:19:31.324Z,99196.06
2023-05-25T06:22:00.723Z,99196.50
2023-05-25T06:24:28.718Z,99196.56
2023-05-25T06:26:56.670Z,99186.88
2023-05-25T06:29:24.701Z,99184.31
2023-05-25T06:31:52.935Z,99184.69
2023-05-25T06:34:21.196Z,99193.31
2023-05-25T06:36:49.265Z,99188.34
2023-05-25T06:39:18.694Z,99184.16
2023-05-25T06:41:46.923Z,99198.13
2023-05-25T06:44:26.571Z,99193.31
2023-05-25T06:46:54.625Z,99186.78
2023-05-25T06:49:22.692Z,99190.63
2023-05-25T06:51:51.218Z,99192.28
2023-05-25T06:54:20.742Z,99199.16
2023-05-25T06:56:49.884Z,99199.41
2023-05-25T06:59:18.402Z,99203.50
2023-05-25T07:01:47.405Z,99205.25
2023-05-25T07:04:15.604Z,99206.41
2023-05-25T07:06:43.515Z,99206.66
2023-05-25T07:09:11.804Z,99205.72
2023-05-25T07:11:41.104Z,99208.34
2023-05-25T07:14:09.084Z,99208.13
2023-05-25T07:16:37.268Z,99205.31
2023-05-25T07:19:05.208Z,99201.63
2023-05-25T07:21:34.387Z,99203.03
2023-05-25T07:24:02.410Z,99208.00
2023-05-25T07:26:31.824Z,99209.94
2023-05-25T07:29:01.359Z,99213.91
2023-05-25T07:31:31.639Z,99211.56
2023-05-25T07:33:59.716Z,99211.19
2023-05-25T07:36:27.683Z,99214.25
2023-05-25T07:38:56.030Z,99214.41
2023-05-25T07:41:23.999Z,99219.38
2023-05-25T07:43:54.200Z,99208.72
2023-05-25T07:46:25.369Z,99213.72
2023-05-25T07:48:54.687Z,99216.44
2023-05-25T07:51:23.356Z,99220.72
2023-05-25T07:53:52.385Z,99219.91
2023-05-25T07:56:20.669Z,99214.16
2023-05-25T07:58:51.054Z,99222.28
2023-05-25T08:01:19.066Z,99212.97
2023-05-25T08:03:50.883Z,99212.47
2023-05-25T08:06:19.165Z,99210.81
2023-05-25T08:08:47.426Z,99212.19
2023-05-25T08:11:17.040Z,99200.66
2023-05-25T08:13:45.023Z,99198.91
2023-05-25T08:16:12.944Z,99204.75
2023-05-25T08:18:44.278Z,99193.75
2023-05-25T08:21:13.810Z,99206.31
2023-05-25T08:23:42.508Z,99201.78
2023-05-25T08:28:43.957Z,99209.00
2023-05-25T08:31:12.118Z,99208.13
2023-05-25T08:33:40.238Z,99214.97
2023-05-25T08:36:09.245Z,99214.25
2023-05-25T08:38:39.015Z,99213.16
2023-05-25T08:41:08.478Z,99219.06
2023-05-25T08:43:36.859Z,99218.81
2023-05-25T08:46:06.710Z,99217.75
2023-05-25T08:48:41.715Z,99215.00
2023-05-25T08:51:12.220Z,99215.56
2023-05-25T08:53:42.388Z,99216.78
2023-05-25T08:56:15.003Z,99215.44
2023-05-25T08:58:47.583Z,99212.56
2023-05-25T09:01:18.787Z,99209.97
2023-05-25T09:03:50.236Z,99206.31
2023-05-25T09:06:18.729Z,99210.22
2023-05-25T09:08:48.662Z,99210.53
2023-05-25T09:11:22.491Z,99198.66
2023-05-25T09:13:59.156Z,99186.19
2023-05-25T09:16:27.532Z,99203.09
2023-05-25T09:18:55.536Z,99195.72
2023-05-25T09:21:23.486Z,99207.13
2023-05-25T09:23:52.983Z,99199.94
2023-05-25T09:26:23.324Z,99200.25
2023-05-25T09:28:51.674Z,99201.97
2023-05-25T09:31:19.790Z,99208.41
2023-05-25T09:33:47.802Z,99203.00
2023-05-25T09:40:41.970Z,99209.47
2023-05-25T09:43:10.121Z,99207.69
2023-05-25T09:45:38.489Z,99219.91
2023-05-25T09:48:07.479Z,99216.19
2023-05-25T09:50:37.280Z,99207.63
2023-05-25T09:53:05.355Z,99208.91
2023-05-25T09:55:44.354Z,99202.47
2023-05-25T09:58:23.708Z,99204.72
2023-05-25T10:00:54.630Z,99200.38
2023-05-25T10:03:22.672Z,99203.56
2023-05-25T10:05:51.232Z,99190.44
2023-05-25T10:08:21.595Z,99204.41
2023-05-25T10:10:51.331Z,99203.13
2023-05-25T10:13:23.851Z,99195.53
2023-05-25T10:15:55.303Z,99205.34
2023-05-25T10:18:26.686Z,99192.16
2023-05-25T10:21:02.159Z,99204.69
2023-05-25T10:23:36.957Z,99195.56
2023-05-25T10:26:09.238Z,99190.06
2023-05-25T10:28:41.001Z,99186.66
2023-05-25T10:31:10.459Z,99188.63
2023-05-25T10:33:38.505Z,99191.47
2023-05-25T10:36:11.548Z,99203.00
2023-05-25T10:38:41.117Z,99194.47
2023-05-25T10:41:10.775Z,99192.50
2023-05-25T10:43:41.077Z,99190.41
2023-05-25T10:46:09.342Z,99192.19
2023-05-25T10:48:38.449Z,99194.38
2023-05-25T10:51:09.307Z,99186.50
2023-05-25T10:53:39.901Z,99187.59
2023-05-25T10:56:10.598Z,99188.00
2023-05-25T10:58:42.641Z,99197.53
2023-05-25T11:01:14.065Z,99201.28
2023-05-25T11:03:59.008Z,99192.22
2023-05-25T11:07:00.353Z,99203.19
2023-05-25T11:09:30.935Z,99191.38
2023-05-25T11:12:06.565Z,99192.19
2023-05-25T11:14:38.337Z,99187.16
2023-05-25T11:17:10.950Z,99186.59
2023-05-25T11:19:49.611Z,99186.94
2023-05-25T11:22:20.600Z,99177.09
2023-05-25T11:24:48.985Z,99179.28
2023-05-25T11:27:17.110Z,99182.22
2023-05-25T11:29:51.542Z,99182.31
2023-05-25T11:32:19.848Z,99189.47
2023-05-25T11:34:50.607Z,99178.88
2023-05-25T11:37:21.178Z,99180.69
2023-05-25T11:39:51.592Z,99184.81
2023-05-25T11:42:22.042Z,99177.84
2023-05-25T11:44:51.866Z,99176.22
2023-05-25T11:47:25.284Z,99165.97
2023-05-25T11:49:56.781Z,99169.78
2023-05-25T11:52:25.075Z,99176.59
2023-05-25T11:54:53.260Z,99176.06
2023-05-25T11:57:24.692Z,99173.56
2023-05-25T11:59:55.511Z,99183.31
2023-05-25T12:02:24.857Z,99177.91
2023-05-25T12:04:57.528Z,99172.59
2023-05-25T12:07:27.074Z,99171.59
2023-05-25T12:10:06.377Z,99175.63
2023-05-25T12:12:41.102Z,99185.00
2023-05-25T12:15:12.349Z,99171.75
2023-05-25T12:17:43.033Z,99168.09
2023-05-25T12:20:13.253Z,99175.53
2023-05-25T12:22:42.149Z,99168.69
2023-05-25T12:25:12.487Z,99165.31
2023-05-25T12:27:41.383Z,99172.25
2023-05-25T12:30:12.528Z,99175.25
2023-05-25T12:33:02.208Z,99177.81
2023-05-25T12:35:32.410Z,99172.19
2023-05-25T12:38:12.620Z,99168.50
2023-05-25T12:40:40.752Z,99162.88
2023-05-25T12:43:08.886Z,99167.38
2023-05-25T12:45:42.516Z,99163.13
2023-05-25T12:48:11.053Z,99165.69
2023-05-25T12:50:57.994Z,99163.41
2023-05-25T12:53:27.175Z,99167.22
2023-05-25T12:56:05.108Z,99157.69
2023-05-25T12:58:33.100Z,99163.91
2023-05-25T13:01:02.611Z,99162.88
2023-05-25T13:03:30.861Z,99162.50
2023-05-25T13:06:02.379Z,99158.75
2023-05-25T13:08:30.568Z,99160.94
2023-05-25T13:10:58.746Z,99158.53
2023-05-25T13:13:27.015Z,99169.78
2023-05-25T13:15:58.272Z,99154.06
2023-05-25T13:18:27.673Z,99151.94
2023-05-25T13:20:58.481Z,99151.28
2023-05-25T13:23:26.968Z,99150.19
2023-05-25T13:25:55.043Z,99143.31
2023-05-25T13:28:23.198Z,99155.47
2023-05-25T13:30:53.609Z,99150.94
2023-05-25T13:33:21.599Z,99150.44
2023-05-25T13:35:59.095Z,99144.53
2023-05-25T13:38:27.778Z,99139.00
2023-05-25T13:40:55.985Z,99153.25
2023-05-25T13:43:24.429Z,99145.78
2023-05-25T13:45:52.552Z,99151.31
2023-05-25T13:48:20.888Z,99143.13
2023-05-25T13:50:50.505Z,99144.44
2023-05-25T13:53:18.581Z,99147.44
2023-05-25T13:55:46.648Z,99148.09
2023-05-25T13:58:14.759Z,99142.47
2023-05-25T14:00:43.622Z,99134.16
2023-05-25T14:03:12.363Z,99129.63
2023-05-25T14:05:40.787Z,99142.66
2023-05-25T14:08:12.707Z,99138.72
2023-05-25T14:10:43.329Z,99139.97
2023-05-25T14:13:11.510Z,99139.94
2023-05-25T14:15:39.498Z,99137.84
2023-05-25T14:18:07.755Z,99127.19
2023-05-25T14:20:38.260Z,99128.41
2023-05-25T14:23:06.244Z,99134.06
2023-05-25T14:25:35.693Z,99122.47
2023-05-25T14:28:03.846Z,99124.47
2023-05-25T14:30:31.670Z,99127.22
2023-05-25T14:32:59.736Z,99130.72
2023-05-25T14:35:27.785Z,99133.16
2023-05-25T14:37:55.846Z,99130.28
2023-05-25T14:40:23.818Z,99118.78
2023-05-25T14:42:55.359Z,99126.81
2023-05-25T14:45:23.361Z,99122.16
2023-05-25T14:47:55.653Z,99123.91
2023-05-25T14:50:32.226Z,99120.56
2023-05-25T14:53:00.332Z,99132.16
2023-05-25T14:55:28.320Z,99125.53
2023-05-25T14:57:57.916Z,99134.25
2023-05-25T15:00:25.941Z,99129.06
2023-05-25T15:02:53.984Z,99136.34
2023-05-25T15:05:22.456Z,99137.06
2023-05-25T15:07:50.690Z,99126.06
2023-05-25T15:10:18.865Z,99130.78
2023-05-25T15:12:46.930Z,99130.94
2023-05-25T15:15:17.222Z,99129.03
2023-05-25T15:17:45.556Z,99124.66
2023-05-25T15:20:13.533Z,99122.59
2023-05-25T15:22:41.569Z,99128.03
2023-05-25T15:25:09.995Z,99127.47
2023-05-25T15:27:38.115Z,99129.16
2023-05-25T15:30:07.427Z,99127.91
2023-05-25T15:32:39.269Z,99125.63
2023-05-25T15:35:07.895Z,99128.78
2023-05-25T15:37:35.907Z,99131.22
2023-05-25T15:40:04.093Z,99122.66
2023-05-25T15:42:34.466Z,99130.25
2023-05-25T15:45:02.839Z,99120.13
2023-05-25T15:47:31.044Z,99118.81
2023-05-25T15:50:00.442Z,99129.06
2023-05-25T15:52:28.315Z,99121.47
2023-05-25T15:54:56.276Z,99121.41
2023-05-25T15:57:24.267Z,99126.47
2023-05-25T15:59:52.421Z,99119.56
2023-05-25T16:02:20.551Z,99115.09
2023-05-25T16:04:49.378Z,99115.81
2023-05-25T16:07:19.333Z,99124.84
2023-05-25T16:09:47.510Z,99119.81
2023-05-25T16:12:15.798Z,99117.19
2023-05-25T16:14:46.192Z,99123.91
2023-05-25T16:17:15.412Z,99115.25
2023-05-25T16:19:43.963Z,99119.75
2023-05-25T16:22:12.435Z,99115.75
2023-05-25T16:24:41.818Z,99111.78
2023-05-25T16:27:10.024Z,99110.63
2023-05-25T16:29:38.980Z,99121.63
2023-05-25T16:32:07.739Z,99121.22
2023-05-25T16:34:36.088Z,99121.56
2023-05-25T16:37:04.358Z,99123.25
2023-05-25T16:39:33.100Z,99119.72
2023-05-25T16:42:02.402Z,99115.47
2023-05-25T16:44:30.283Z,99110.78
2023-05-25T16:46:58.095Z,99124.03
2023-05-25T16:49:26.216Z,99111.88
2023-05-25T16:51:54.073Z,99109.03
2023-05-25T16:54:22.355Z,99109.94
2023-05-25T16:56:51.123Z,99112.28
2023-05-25T16:59:20.640Z,99116.19
2023-05-25T17:01:48.899Z,99113.78
2023-05-25T17:04:19.227Z,99111.56
2023-05-25T17:06:47.244Z,99110.63
2023-05-25T17:09:15.314Z,99112.25
2023-05-25T17:11:43.267Z,99112.47
2023-05-25T17:14:11.721Z,99105.88
2023-05-25T17:16:41.409Z,99110.28
2023-05-25T17:19:10.823Z,99107.72
2023-05-25T17:21:40.990Z,99117.63
2023-05-25T17:24:11.373Z,99111.78
2023-05-25T17:26:39.416Z,99114.47
2023-05-25T17:29:08.433Z,99115.59
2023-05-25T17:31:36.714Z,99109.09
2023-05-25T17:34:06.132Z,99114.69
2023-05-25T17:36:34.103Z,99108.00
2023-05-25T17:39:02.179Z,99113.84
2023-05-25T17:41:30.847Z,99109.69
2023-05-25T17:43:58.831Z,99118.97
2023-05-25T17:46:30.475Z,99118.47
2023-05-25T17:48:59.720Z,99120.63
2023-05-25T17:51:29.812Z,99119.78
2023-05-25T17:53:57.868Z,99119.63
2023-05-25T17:56:27.114Z,99113.75
2023-05-25T17:58:59.942Z,99119.94
2023-05-25T18:01:28.001Z,99121.63
2023-05-25T18:03:57.422Z,99124.31
2023-05-25T18:06:26.681Z,99130.03
2023-05-25T18:08:57.952Z,99131.91
2023-05-25T18:11:30.091Z,99134.59
2023-05-25T18:13:58.202Z,99129.75
2023-05-25T18:16:26.263Z,99130.06
2023-05-25T18:18:54.461Z,99131.75
2023-05-25T18:21:22.546Z,99134.44
2023-05-25T18:23:50.964Z,99125.34
2023-05-25T18:26:20.348Z,99142.81
2023-05-25T18:28:48.713Z,99141.16
2023-05-25T18:31:16.811Z,99144.00
2023-05-25T18:33:44.816Z,99139.97
2023-05-25T18:36:12.771Z,99139.47
2023-05-25T18:38:44.131Z,99146.69
2023-05-25T18:41:12.474Z,99146.53
2023-05-25T18:43:42.793Z,99150.88
2023-05-25T18:46:17.368Z,99154.41
2023-05-25T18:48:48.156Z,99144.66
2023-05-25T18:51:22.938Z,99144.47
2023-05-25T18:54:06.893Z,99149.78
2023-05-25T18:56:43.658Z,99146.63
2023-05-25T18:59:13.463Z,99147.81
2023-05-25T19:01:42.305Z,99145.91
2023-05-25T19:04:11.033Z,99147.78
2023-05-25T19:06:42.433Z,99151.91
2023-05-25T19:09:44.760Z,99160.63
2023-05-25T19:12:19.356Z,99155.31
2023-05-25T19:14:48.783Z,99162.94
2023-05-25T19:17:17.194Z,99162.09
2023-05-25T19:19:45.567Z,99161.91
2023-05-25T19:22:13.468Z,99169.47
2023-05-25T19:24:43.039Z,99175.09
2023-05-25T19:27:14.978Z,99175.34
2023-05-25T19:29:43.565Z,99172.31
2023-05-25T19:32:15.024Z,99174.75
2023-05-25T19:34:43.966Z,99180.28
2023-05-25T19:37:12.177Z,99188.59
2023-05-25T19:39:40.070Z,99184.03
2023-05-25T19:42:08.380Z,99183.53
2023-05-25T19:44:36.420Z,99188.75
2023-05-25T19:47:04.332Z,99190.19
2023-05-25T19:49:33.681Z,99191.34
2023-05-25T19:52:01.668Z,99196.56
2023-05-25T19:54:29.595Z,99191.19
2023-05-25T19:56:57.600Z,99189.03
2023-05-25T19:59:28.058Z,99191.66
2023-05-25T20:01:56.964Z,99191.75
2023-05-25T20:04:25.194Z,99197.75
2023-05-25T20:06:55.128Z,99202.63
2023-05-25T20:09:29.998Z,99199.69
2023-05-25T20:11:58.828Z,99208.84
2023-05-25T20:14:27.108Z,99201.84
2023-05-25T20:16:55.955Z,99199.84
2023-05-25T20:19:26.457Z,99198.69
2023-05-25T20:21:56.716Z,99205.22
2023-05-25T20:24:24.678Z,99209.06
2023-05-25T20:26:56.666Z,99205.19
2023-05-25T20:29:24.891Z,99211.75
2023-05-25T20:31:53.341Z,99208.22
2023-05-25T20:34:21.350Z,99215.69
2023-05-25T20:36:49.630Z,99220.06
2023-05-25T20:39:18.979Z,99222.75
2023-05-25T20:41:46.972Z,99227.53
2023-05-25T20:44:14.993Z,99226.59
2023-05-25T20:46:43.058Z,99232.28
2023-05-25T20:49:11.143Z,99232.94
2023-05-25T20:51:39.266Z,99237.94
2023-05-25T20:54:07.443Z,99230.31
2023-05-25T20:56:36.770Z,99231.94
2023-05-25T20:59:04.735Z,99233.19
2023-05-25T21:01:35.324Z,99229.59
2023-05-25T21:04:03.387Z,99231.56
2023-05-25T21:06:32.220Z,99238.44
2023-05-25T21:09:00.219Z,99226.22
2023-05-25T21:11:28.620Z,99232.84
2023-05-25T21:14:00.598Z,99233.72
2023-05-25T21:16:28.772Z,99237.06
2023-05-25T21:18:56.658Z,99241.06
2023-05-25T21:21:24.806Z,99244.13
2023-05-25T21:23:52.899Z,99241.78
2023-05-25T21:26:21.311Z,99248.47
2023-05-25T21:28:51.253Z,99238.00
2023-05-25T21:31:20.725Z,99236.38
2023-05-25T21:33:48.788Z,99248.16
2023-05-25T21:36:17.087Z,99242.22
2023-05-25T21:38:44.993Z,99239.03
2023-05-25T21:41:13.017Z,99238.38
2023-05-25T21:43:40.951Z,99250.38
2023-05-25T21:46:08.905Z,99242.47
2023-05-25T21:48:38.126Z,99244.84
2023-05-25T21:51:06.381Z,99257.44
2023-05-25T21:53:34.415Z,99255.56
2023-05-25T21:56:02.485Z,99260.69
2023-05-25T21:58:30.376Z,99267.06
2023-05-25T22:00:58.477Z,99256.94
2023-05-25T22:03:26.537Z,99267.28
2023-05-25T22:05:56.111Z,99269.03
2023-05-25T22:08:24.741Z,99270.66
2023-05-25T22:10:52.759Z,99269.28
2023-05-25T22:13:21.274Z,99271.28
2023-05-25T22:15:52.279Z,99272.66
2023-05-25T22:18:20.258Z,99274.78
2023-05-25T22:20:48.146Z,99271.81
2023-05-25T22:23:17.484Z,99278.03
2023-05-25T22:25:45.696Z,99267.06
2023-05-25T22:28:14.427Z,99272.38
2023-05-25T22:30:43.223Z,99280.22
2023-05-25T22:33:11.330Z,99275.59
2023-05-25T22:35:39.337Z,99291.09
2023-05-25T22:38:07.268Z,99280.69
2023-05-25T22:40:36.551Z,99281.97
2023-05-25T22:43:04.707Z,99275.19
2023-05-25T22:45:35.690Z,99278.28
2023-05-25T22:48:03.881Z,99292.72
2023-05-25T22:50:32.838Z,99281.00
2023-05-25T22:53:00.989Z,99288.69
2023-05-25T22:55:29.190Z,99284.50
2023-05-25T22:57:58.626Z,99285.91
2023-05-25T23:00:26.626Z,99281.16
2023-05-25T23:02:54.760Z,99291.81
2023-05-25T23:05:22.843Z,99282.53
2023-05-25T23:07:50.867Z,99282.81
2023-05-25T23:10:18.989Z,99283.94
2023-05-25T23:12:47.470Z,99289.53
2023-05-25T23:15:18.577Z,99291.13
2023-05-25T23:17:46.543Z,99282.25
2023-05-25T23:20:14.916Z,99284.78
2023-05-25T23:22:43.564Z,99285.78
2023-05-25T23:25:11.610Z,99288.59
2023-05-25T23:27:39.552Z,99288.06
2023-05-25T23:30:08.760Z,99291.34
2023-05-25T23:32:38.215Z,99298.09
2023-05-25T23:35:07.378Z,99286.47
2023-05-25T23:37:35.813Z,99292.03
2023-05-25T23:40:04.544Z,99292.31
2023-05-25T23:42:38.940Z,99292.16
2023-05-25T23:45:09.843Z,99303.31
2023-05-25T23:47:39.202Z,99299.03
2023-05-25T23:50:07.890Z,99305.38
2023-05-25T23:52:36.157Z,99298.25
2023-05-25T23:55:06.332Z,99311.94
2023-05-25T23:57:35.827Z,99306.00
